sensor_id;sensor_type;location;lat;lon;timestamp;pressure;altitude;pressure_sealevel;temperature;humidity
72685;BME280;61365;52.162;4.500;2023-07-31T00:00:40;100884.50;;;18.10;91.33
72685;BME280;61365;52.162;4.500;2023-07-31T00:03:06;100879.94;;;18.14;90.17
72685;BME280;61365;52.162;4.500;2023-07-31T00:05:32;100884.75;;;18.29;89.70
72685;BME280;61365;52.162;4.500;2023-07-31T00:07:58;100885.91;;;18.21;89.11
72685;BME280;61365;52.162;4.500;2023-07-31T00:10:24;100880.56;;;18.22;88.45
72685;BME280;61365;52.162;4.500;2023-07-31T00:12:50;100890.38;;;18.20;89.37
72685;BME280;61365;52.162;4.500;2023-07-31T00:15:16;100895.06;;;18.12;89.48
72685;BME280;61365;52.162;4.500;2023-07-31T00:17:42;100887.00;;;18.15;90.31
72685;BME280;61365;52.162;4.500;2023-07-31T00:20:08;100890.91;;;18.03;89.99
72685;BME280;61365;52.162;4.500;2023-07-31T00:22:35;100887.56;;;17.95;90.50
72685;BME280;61365;52.162;4.500;2023-07-31T00:25:02;100887.78;;;17.89;90.70
72685;BME280;61365;52.162;4.500;2023-07-31T00:27:28;100884.09;;;17.93;91.53
72685;BME280;61365;52.162;4.500;2023-07-31T00:29:54;100881.84;;;17.80;91.13
72685;BME280;61365;52.162;4.500;2023-07-31T00:32:20;100886.22;;;17.81;91.84
72685;BME280;61365;52.162;4.500;2023-07-31T00:34:46;100883.31;;;17.91;91.65
72685;BME280;61365;52.162;4.500;2023-07-31T00:37:12;100878.09;;;17.88;91.37
72685;BME280;61365;52.162;4.500;2023-07-31T00:39:38;100871.13;;;17.83;91.55
72685;BME280;61365;52.162;4.500;2023-07-31T00:42:04;100868.06;;;17.96;91.43
72685;BME280;61365;52.162;4.500;2023-07-31T00:44:31;100874.22;;;17.99;90.46
72685;BME280;61365;52.162;4.500;2023-07-31T00:46:57;100874.13;;;18.03;90.37
72685;BME280;61365;52.162;4.500;2023-07-31T00:49:25;100868.59;;;18.09;90.45
72685;BME280;61365;52.162;4.500;2023-07-31T00:51:52;100866.94;;;18.05;89.98
72685;BME280;61365;52.162;4.500;2023-07-31T00:54:19;100859.13;;;18.00;90.36
72685;BME280;61365;52.162;4.500;2023-07-31T00:56:45;100854.50;;;18.07;90.50
72685;BME280;61365;52.162;4.500;2023-07-31T00:59:14;100862.28;;;18.13;90.81
72685;BME280;61365;52.162;4.500;2023-07-31T01:01:40;100859.97;;;18.02;89.99
72685;BME280;61365;52.162;4.500;2023-07-31T01:04:06;100862.56;;;18.04;90.33
72685;BME280;61365;52.162;4.500;2023-07-31T01:06:36;100866.75;;;18.11;89.97
72685;BME280;61365;52.162;4.500;2023-07-31T01:12:14;100864.28;;;18.05;89.29
72685;BME280;61365;52.162;4.500;2023-07-31T01:14:54;100857.06;;;18.10;90.23
72685;BME280;61365;52.162;4.500;2023-07-31T01:17:28;100858.94;;;18.06;89.65
72685;BME280;61365;52.162;4.500;2023-07-31T01:19:55;100851.22;;;17.97;90.09
72685;BME280;61365;52.162;4.500;2023-07-31T01:27:53;100853.63;;;18.06;89.42
72685;BME280;61365;52.162;4.500;2023-07-31T01:30:34;100849.97;;;18.10;89.67
72685;BME280;61365;52.162;4.500;2023-07-31T01:33:07;100852.47;;;18.15;89.32
72685;BME280;61365;52.162;4.500;2023-07-31T01:35:34;100849.72;;;18.18;88.77
72685;BME280;61365;52.162;4.500;2023-07-31T01:38:01;100844.41;;;18.18;88.14
72685;BME280;61365;52.162;4.500;2023-07-31T01:40:27;100847.88;;;18.20;87.65
72685;BME280;61365;52.162;4.500;2023-07-31T01:42:53;100833.69;;;18.21;87.37
72685;BME280;61365;52.162;4.500;2023-07-31T01:45:19;100835.47;;;18.21;87.00
72685;BME280;61365;52.162;4.500;2023-07-31T01:47:45;100832.22;;;18.12;87.53
72685;BME280;61365;52.162;4.500;2023-07-31T01:50:11;100833.63;;;18.23;87.26
72685;BME280;61365;52.162;4.500;2023-07-31T01:52:38;100828.63;;;18.13;87.01
72685;BME280;61365;52.162;4.500;2023-07-31T01:55:04;100823.59;;;18.04;87.39
72685;BME280;61365;52.162;4.500;2023-07-31T01:57:30;100816.81;;;18.22;87.10
72685;BME280;61365;52.162;4.500;2023-07-31T01:59:56;100812.28;;;18.26;86.45
72685;BME280;61365;52.162;4.500;2023-07-31T02:02:22;100803.81;;;18.14;86.52
72685;BME280;61365;52.162;4.500;2023-07-31T02:04:48;100794.97;;;18.14;86.24
72685;BME280;61365;52.162;4.500;2023-07-31T02:07:14;100790.41;;;18.18;86.33
72685;BME280;61365;52.162;4.500;2023-07-31T02:09:41;100791.28;;;18.18;85.83
72685;BME280;61365;52.162;4.500;2023-07-31T02:12:07;100787.00;;;18.14;85.77
72685;BME280;61365;52.162;4.500;2023-07-31T02:14:36;100798.28;;;18.21;85.69
72685;BME280;61365;52.162;4.500;2023-07-31T02:17:02;100793.88;;;18.20;86.31
72685;BME280;61365;52.162;4.500;2023-07-31T02:19:29;100791.84;;;18.28;85.95
72685;BME280;61365;52.162;4.500;2023-07-31T02:21:55;100790.31;;;18.21;85.88
72685;BME280;61365;52.162;4.500;2023-07-31T02:24:21;100796.59;;;18.18;85.67
72685;BME280;61365;52.162;4.500;2023-07-31T02:26:47;100793.88;;;18.20;86.29
72685;BME280;61365;52.162;4.500;2023-07-31T02:29:13;100792.09;;;18.20;85.73
72685;BME280;61365;52.162;4.500;2023-07-31T02:31:39;100783.94;;;18.26;85.24
72685;BME280;61365;52.162;4.500;2023-07-31T02:34:05;100789.25;;;18.26;85.70
72685;BME280;61365;52.162;4.500;2023-07-31T02:36:31;100780.19;;;18.32;85.27
72685;BME280;61365;52.162;4.500;2023-07-31T02:38:57;100768.00;;;18.26;84.63
72685;BME280;61365;52.162;4.500;2023-07-31T02:41:23;100768.75;;;18.30;85.17
72685;BME280;61365;52.162;4.500;2023-07-31T02:43:49;100775.69;;;18.34;84.61
72685;BME280;61365;52.162;4.500;2023-07-31T02:46:18;100765.19;;;18.31;84.95
72685;BME280;61365;52.162;4.500;2023-07-31T02:48:45;100763.34;;;18.33;84.75
72685;BME280;61365;52.162;4.500;2023-07-31T02:51:11;100752.06;;;18.26;84.58
72685;BME280;61365;52.162;4.500;2023-07-31T02:53:37;100748.31;;;18.32;84.23
72685;BME280;61365;52.162;4.500;2023-07-31T02:56:03;100751.78;;;18.34;83.60
72685;BME280;61365;52.162;4.500;2023-07-31T02:58:29;100749.94;;;18.36;84.16
72685;BME280;61365;52.162;4.500;2023-07-31T03:00:55;100744.09;;;18.26;84.25
72685;BME280;61365;52.162;4.500;2023-07-31T03:03:23;100754.34;;;18.37;83.74
72685;BME280;61365;52.162;4.500;2023-07-31T03:05:49;100738.22;;;18.42;83.12
72685;BME280;61365;52.162;4.500;2023-07-31T03:08:15;100750.38;;;18.49;82.30
72685;BME280;61365;52.162;4.500;2023-07-31T03:10:41;100739.44;;;18.33;82.34
72685;BME280;61365;52.162;4.500;2023-07-31T03:13:07;100732.19;;;18.38;83.55
72685;BME280;61365;52.162;4.500;2023-07-31T03:15:33;100744.75;;;18.33;83.10
72685;BME280;61365;52.162;4.500;2023-07-31T03:18:00;100737.63;;;18.34;83.06
72685;BME280;61365;52.162;4.500;2023-07-31T03:20:26;100739.09;;;18.42;83.30
72685;BME280;61365;52.162;4.500;2023-07-31T03:22:52;100735.88;;;18.33;83.65
72685;BME280;61365;52.162;4.500;2023-07-31T03:25:18;100739.31;;;18.36;83.58
72685;BME280;61365;52.162;4.500;2023-07-31T03:27:44;100735.34;;;18.23;84.52
72685;BME280;61365;52.162;4.500;2023-07-31T03:30:10;100735.56;;;18.16;84.93
72685;BME280;61365;52.162;4.500;2023-07-31T03:32:36;100725.09;;;18.12;86.24
72685;BME280;61365;52.162;4.500;2023-07-31T03:35:02;100737.81;;;18.02;86.33
72685;BME280;61365;52.162;4.500;2023-07-31T03:37:29;100724.72;;;17.96;86.81
72685;BME280;61365;52.162;4.500;2023-07-31T03:39:55;100725.25;;;18.07;85.93
72685;BME280;61365;52.162;4.500;2023-07-31T03:42:21;100717.22;;;18.09;86.44
72685;BME280;61365;52.162;4.500;2023-07-31T03:44:47;100711.09;;;18.07;86.83
72685;BME280;61365;52.162;4.500;2023-07-31T03:47:13;100713.34;;;18.19;86.35
72685;BME280;61365;52.162;4.500;2023-07-31T03:49:39;100709.00;;;18.16;86.02
72685;BME280;61365;52.162;4.500;2023-07-31T03:52:05;100704.19;;;18.03;86.56
72685;BME280;61365;52.162;4.500;2023-07-31T03:54:32;100703.91;;;18.10;86.42
72685;BME280;61365;52.162;4.500;2023-07-31T03:56:58;100700.38;;;18.10;86.53
72685;BME280;61365;52.162;4.500;2023-07-31T03:59:24;100699.81;;;18.02;86.90
72685;BME280;61365;52.162;4.500;2023-07-31T04:01:50;100687.44;;;18.00;87.80
72685;BME280;61365;52.162;4.500;2023-07-31T04:04:16;100688.13;;;18.06;87.01
72685;BME280;61365;52.162;4.500;2023-07-31T04:06:42;100690.28;;;17.94;87.66
72685;BME280;61365;52.162;4.500;2023-07-31T04:09:08;100692.78;;;17.99;88.33
72685;BME280;61365;52.162;4.500;2023-07-31T04:11:34;100690.38;;;17.91;88.54
72685;BME280;61365;52.162;4.500;2023-07-31T04:14:00;100685.88;;;17.93;88.74
72685;BME280;61365;52.162;4.500;2023-07-31T04:16:27;100680.59;;;17.92;89.03
72685;BME280;61365;52.162;4.500;2023-07-31T04:18:53;100673.44;;;17.95;89.23
72685;BME280;61365;52.162;4.500;2023-07-31T04:21:19;100667.34;;;17.92;89.12
72685;BME280;61365;52.162;4.500;2023-07-31T04:23:45;100665.31;;;18.00;89.02
72685;BME280;61365;52.162;4.500;2023-07-31T04:26:11;100666.22;;;18.00;89.33
72685;BME280;61365;52.162;4.500;2023-07-31T04:28:37;100654.03;;;17.93;89.19
72685;BME280;61365;52.162;4.500;2023-07-31T04:31:03;100650.44;;;17.94;89.36
72685;BME280;61365;52.162;4.500;2023-07-31T04:33:29;100651.31;;;17.95;89.43
72685;BME280;61365;52.162;4.500;2023-07-31T04:35:55;100653.75;;;17.76;90.20
72685;BME280;61365;52.162;4.500;2023-07-31T04:38:22;100649.13;;;17.81;90.65
72685;BME280;61365;52.162;4.500;2023-07-31T04:40:48;100654.34;;;17.84;90.70
72685;BME280;61365;52.162;4.500;2023-07-31T04:43:14;100655.13;;;17.88;90.88
72685;BME280;61365;52.162;4.500;2023-07-31T04:45:42;100647.84;;;17.93;90.47
72685;BME280;61365;52.162;4.500;2023-07-31T04:48:12;100646.00;;;17.95;90.38
72685;BME280;61365;52.162;4.500;2023-07-31T04:50:38;100635.47;;;17.92;90.85
72685;BME280;61365;52.162;4.500;2023-07-31T04:53:04;100634.19;;;17.78;91.12
72685;BME280;61365;52.162;4.500;2023-07-31T04:55:30;100640.97;;;17.87;91.42
72685;BME280;61365;52.162;4.500;2023-07-31T04:57:57;100638.31;;;17.87;91.57
72685;BME280;61365;52.162;4.500;2023-07-31T05:00:24;100636.47;;;17.89;91.00
72685;BME280;61365;52.162;4.500;2023-07-31T05:02:50;100634.84;;;17.85;91.09
72685;BME280;61365;52.162;4.500;2023-07-31T05:05:17;100628.22;;;17.71;91.66
72685;BME280;61365;52.162;4.500;2023-07-31T05:07:43;100630.16;;;17.66;92.54
72685;BME280;61365;52.162;4.500;2023-07-31T05:10:09;100626.84;;;17.60;92.63
72685;BME280;61365;52.162;4.500;2023-07-31T05:12:35;100625.72;;;17.67;93.41
72685;BME280;61365;52.162;4.500;2023-07-31T05:15:01;100618.25;;;17.78;93.42
72685;BME280;61365;52.162;4.500;2023-07-31T05:17:27;100616.47;;;17.79;92.88
72685;BME280;61365;52.162;4.500;2023-07-31T05:19:53;100613.50;;;17.63;93.08
72685;BME280;61365;52.162;4.500;2023-07-31T05:22:20;100616.50;;;17.52;93.40
72685;BME280;61365;52.162;4.500;2023-07-31T05:24:46;100614.06;;;17.46;93.47
72685;BME280;61365;52.162;4.500;2023-07-31T05:27:12;100610.63;;;17.42;93.53
72685;BME280;61365;52.162;4.500;2023-07-31T05:29:40;100605.75;;;17.30;93.79
72685;BME280;61365;52.162;4.500;2023-07-31T05:32:06;100601.72;;;17.16;93.95
72685;BME280;61365;52.162;4.500;2023-07-31T05:34:33;100604.97;;;17.26;94.28
72685;BME280;61365;52.162;4.500;2023-07-31T05:36:59;100604.25;;;17.21;94.64
72685;BME280;61365;52.162;4.500;2023-07-31T05:39:25;100591.72;;;17.26;94.29
72685;BME280;61365;52.162;4.500;2023-07-31T05:41:51;100592.63;;;17.25;94.57
72685;BME280;61365;52.162;4.500;2023-07-31T05:44:17;100592.41;;;17.31;94.81
72685;BME280;61365;52.162;4.500;2023-07-31T05:46:43;100595.22;;;17.26;94.51
72685;BME280;61365;52.162;4.500;2023-07-31T05:49:09;100595.06;;;17.31;94.78
72685;BME280;61365;52.162;4.500;2023-07-31T05:51:35;100596.81;;;17.32;95.13
72685;BME280;61365;52.162;4.500;2023-07-31T05:54:01;100594.13;;;17.34;94.95
72685;BME280;61365;52.162;4.500;2023-07-31T05:56:28;100593.94;;;17.38;95.27
72685;BME280;61365;52.162;4.500;2023-07-31T05:58:54;100591.84;;;17.48;94.90
72685;BME280;61365;52.162;4.500;2023-07-31T06:01:20;100579.88;;;17.36;94.56
72685;BME280;61365;52.162;4.500;2023-07-31T06:03:47;100591.09;;;17.45;94.69
72685;BME280;61365;52.162;4.500;2023-07-31T06:06:13;100582.94;;;17.51;94.97
72685;BME280;61365;52.162;4.500;2023-07-31T06:08:39;100579.25;;;17.55;94.78
72685;BME280;61365;52.162;4.500;2023-07-31T06:11:06;100578.31;;;17.56;94.87
72685;BME280;61365;52.162;4.500;2023-07-31T06:13:34;100573.44;;;17.69;94.70
72685;BME280;61365;52.162;4.500;2023-07-31T06:16:00;100562.84;;;17.69;94.47
72685;BME280;61365;52.162;4.500;2023-07-31T06:18:32;100567.34;;;17.67;94.96
72685;BME280;61365;52.162;4.500;2023-07-31T06:20:58;100569.50;;;17.81;94.72
72685;BME280;61365;52.162;4.500;2023-07-31T06:23:25;100580.91;;;17.84;93.96
72685;BME280;61365;52.162;4.500;2023-07-31T06:25:51;100551.59;;;17.88;94.19
72685;BME280;61365;52.162;4.500;2023-07-31T06:28:17;100564.63;;;17.94;94.01
72685;BME280;61365;52.162;4.500;2023-07-31T06:30:43;100556.28;;;18.05;93.33
72685;BME280;61365;52.162;4.500;2023-07-31T06:33:09;100561.59;;;18.05;93.34
72685;BME280;61365;52.162;4.500;2023-07-31T06:35:36;100550.94;;;18.06;93.19
72685;BME280;61365;52.162;4.500;2023-07-31T06:38:02;100551.75;;;18.08;92.71
72685;BME280;61365;52.162;4.500;2023-07-31T06:40:28;100554.03;;;18.18;92.05
72685;BME280;61365;52.162;4.500;2023-07-31T06:42:55;100555.22;;;18.10;92.51
72685;BME280;61365;52.162;4.500;2023-07-31T06:45:21;100552.31;;;18.16;92.09
72685;BME280;61365;52.162;4.500;2023-07-31T06:47:47;100545.22;;;18.17;92.75
72685;BME280;61365;52.162;4.500;2023-07-31T06:50:13;100539.91;;;18.17;92.52
72685;BME280;61365;52.162;4.500;2023-07-31T06:52:39;100545.31;;;18.15;92.25
72685;BME280;61365;52.162;4.500;2023-07-31T06:57:45;100537.84;;;18.25;92.89
72685;BME280;61365;52.162;4.500;2023-07-31T07:00:15;100543.28;;;18.22;93.04
72685;BME280;61365;52.162;4.500;2023-07-31T07:02:42;100539.09;;;18.39;92.25
72685;BME280;61365;52.162;4.500;2023-07-31T07:05:08;100544.81;;;18.28;92.45
72685;BME280;61365;52.162;4.500;2023-07-31T07:07:35;100538.47;;;18.32;92.67
72685;BME280;61365;52.162;4.500;2023-07-31T07:10:01;100538.59;;;18.29;92.93
72685;BME280;61365;52.162;4.500;2023-07-31T07:12:30;100554.19;;;18.38;92.66
72685;BME280;61365;52.162;4.500;2023-07-31T07:14:57;100550.03;;;18.31;92.89
72685;BME280;61365;52.162;4.500;2023-07-31T07:17:24;100542.88;;;18.33;93.40
72685;BME280;61365;52.162;4.500;2023-07-31T07:19:50;100547.19;;;18.36;93.16
72685;BME280;61365;52.162;4.500;2023-07-31T07:22:17;100544.53;;;18.36;92.66
72685;BME280;61365;52.162;4.500;2023-07-31T07:24:43;100554.31;;;18.35;93.15
72685;BME280;61365;52.162;4.500;2023-07-31T07:27:10;100547.47;;;18.52;93.08
72685;BME280;61365;52.162;4.500;2023-07-31T07:29:37;100554.03;;;18.41;93.35
72685;BME280;61365;52.162;4.500;2023-07-31T07:32:04;100549.78;;;18.37;93.51
72685;BME280;61365;52.162;4.500;2023-07-31T07:34:30;100552.16;;;18.45;93.72
72685;BME280;61365;52.162;4.500;2023-07-31T07:36:56;100540.63;;;18.44;93.32
72685;BME280;61365;52.162;4.500;2023-07-31T07:39:23;100545.72;;;18.51;93.31
72685;BME280;61365;52.162;4.500;2023-07-31T07:41:49;100533.19;;;18.54;93.21
72685;BME280;61365;52.162;4.500;2023-07-31T07:44:15;100543.75;;;18.56;92.94
72685;BME280;61365;52.162;4.500;2023-07-31T07:46:41;100538.09;;;18.41;93.72
72685;BME280;61365;52.162;4.500;2023-07-31T07:49:07;100541.00;;;18.59;93.35
72685;BME280;61365;52.162;4.500;2023-07-31T07:51:33;100538.25;;;18.60;92.12
72685;BME280;61365;52.162;4.500;2023-07-31T07:54:00;100543.56;;;18.60;92.84
72685;BME280;61365;52.162;4.500;2023-07-31T07:56:26;100537.94;;;18.68;92.68
72685;BME280;61365;52.162;4.500;2023-07-31T07:58:53;100538.75;;;18.70;92.02
72685;BME280;61365;52.162;4.500;2023-07-31T08:01:20;100529.75;;;18.74;92.52
72685;BME280;61365;52.162;4.500;2023-07-31T08:03:46;100517.81;;;18.85;92.75
72685;BME280;61365;52.162;4.500;2023-07-31T08:06:14;100524.59;;;18.92;92.07
72685;BME280;61365;52.162;4.500;2023-07-31T08:08:40;100523.94;;;18.87;92.13
72685;BME280;61365;52.162;4.500;2023-07-31T08:11:06;100517.94;;;18.82;92.45
72685;BME280;61365;52.162;4.500;2023-07-31T08:13:33;100511.28;;;18.92;92.24
72685;BME280;61365;52.162;4.500;2023-07-31T08:15:59;100509.03;;;18.83;91.61
72685;BME280;61365;52.162;4.500;2023-07-31T08:18:25;100522.31;;;18.83;91.62
72685;BME280;61365;52.162;4.500;2023-07-31T08:20:51;100516.13;;;18.82;92.06
72685;BME280;61365;52.162;4.500;2023-07-31T08:23:18;100515.59;;;18.96;92.02
72685;BME280;61365;52.162;4.500;2023-07-31T08:25:44;100512.81;;;18.77;92.21
72685;BME280;61365;52.162;4.500;2023-07-31T08:28:10;100521.75;;;18.74;92.23
72685;BME280;61365;52.162;4.500;2023-07-31T08:30:37;100511.69;;;18.83;92.04
72685;BME280;61365;52.162;4.500;2023-07-31T08:33:03;100512.41;;;18.86;92.29
72685;BME280;61365;52.162;4.500;2023-07-31T08:35:29;100505.75;;;18.98;91.41
72685;BME280;61365;52.162;4.500;2023-07-31T08:37:55;100512.31;;;18.89;91.59
72685;BME280;61365;52.162;4.500;2023-07-31T08:40:21;100508.59;;;18.94;91.77
72685;BME280;61365;52.162;4.500;2023-07-31T08:42:48;100511.09;;;19.19;91.26
72685;BME280;61365;52.162;4.500;2023-07-31T08:45:18;100499.16;;;19.09;90.86
72685;BME280;61365;52.162;4.500;2023-07-31T08:47:49;100498.34;;;19.27;90.33
72685;BME280;61365;52.162;4.500;2023-07-31T08:50:17;100502.03;;;19.25;89.87
72685;BME280;61365;52.162;4.500;2023-07-31T08:52:45;100499.25;;;19.28;89.69
72685;BME280;61365;52.162;4.500;2023-07-31T08:55:13;100512.34;;;19.32;89.18
72685;BME280;61365;52.162;4.500;2023-07-31T08:57:39;100501.34;;;19.40;89.11
72685;BME280;61365;52.162;4.500;2023-07-31T09:00:08;100507.22;;;19.48;88.85
72685;BME280;61365;52.162;4.500;2023-07-31T09:02:41;100504.28;;;19.34;88.22
72685;BME280;61365;52.162;4.500;2023-07-31T09:05:14;100505.78;;;19.19;89.15
72685;BME280;61365;52.162;4.500;2023-07-31T09:07:40;100503.47;;;19.32;89.04
72685;BME280;61365;52.162;4.500;2023-07-31T09:10:12;100514.91;;;19.34;88.73
72685;BME280;61365;52.162;4.500;2023-07-31T09:12:38;100502.41;;;19.36;87.63
72685;BME280;61365;52.162;4.500;2023-07-31T09:15:05;100502.56;;;19.54;87.23
72685;BME280;61365;52.162;4.500;2023-07-31T09:17:36;100508.28;;;19.44;88.03
72685;BME280;61365;52.162;4.500;2023-07-31T09:20:13;100503.16;;;19.40;87.57
72685;BME280;61365;52.162;4.500;2023-07-31T09:22:47;100507.25;;;19.47;87.17
72685;BME280;61365;52.162;4.500;2023-07-31T09:25:17;100511.06;;;19.62;87.35
72685;BME280;61365;52.162;4.500;2023-07-31T09:27:52;100501.59;;;19.34;88.26
72685;BME280;61365;52.162;4.500;2023-07-31T09:30:20;100498.56;;;19.43;87.47
72685;BME280;61365;52.162;4.500;2023-07-31T09:32:47;100504.34;;;19.32;87.25
72685;BME280;61365;52.162;4.500;2023-07-31T09:35:21;100504.13;;;19.37;86.97
72685;BME280;61365;52.162;4.500;2023-07-31T09:37:55;100504.59;;;19.47;86.88
72685;BME280;61365;52.162;4.500;2023-07-31T09:40:35;100497.41;;;19.70;86.63
72685;BME280;61365;52.162;4.500;2023-07-31T09:43:06;100500.72;;;19.95;85.14
72685;BME280;61365;52.162;4.500;2023-07-31T09:45:37;100496.97;;;20.00;85.16
72685;BME280;61365;52.162;4.500;2023-07-31T09:48:08;100500.09;;;19.90;84.26
72685;BME280;61365;52.162;4.500;2023-07-31T09:50:36;100498.72;;;19.80;85.95
72685;BME280;61365;52.162;4.500;2023-07-31T09:53:06;100495.84;;;19.85;85.89
72685;BME280;61365;52.162;4.500;2023-07-31T09:55:33;100496.25;;;19.96;84.93
72685;BME280;61365;52.162;4.500;2023-07-31T09:58:03;100495.09;;;20.02;84.43
72685;BME280;61365;52.162;4.500;2023-07-31T10:00:34;100495.69;;;20.08;84.25
72685;BME280;61365;52.162;4.500;2023-07-31T10:03:05;100495.91;;;20.42;82.83
72685;BME280;61365;52.162;4.500;2023-07-31T10:05:36;100492.00;;;20.49;82.53
72685;BME280;61365;52.162;4.500;2023-07-31T10:08:06;100498.59;;;20.23;83.19
72685;BME280;61365;52.162;4.500;2023-07-31T10:10:35;100497.06;;;20.36;83.21
72685;BME280;61365;52.162;4.500;2023-07-31T10:13:03;100494.19;;;20.41;83.80
72685;BME280;61365;52.162;4.500;2023-07-31T10:15:34;100498.34;;;20.66;82.51
72685;BME280;61365;52.162;4.500;2023-07-31T10:18:02;100491.13;;;20.68;82.19
72685;BME280;61365;52.162;4.500;2023-07-31T10:20:31;100493.91;;;20.84;80.08
72685;BME280;61365;52.162;4.500;2023-07-31T10:22:57;100501.50;;;21.28;79.84
72685;BME280;61365;52.162;4.500;2023-07-31T10:25:26;100484.66;;;21.62;77.22
72685;BME280;61365;52.162;4.500;2023-07-31T10:27:53;100499.09;;;21.57;77.14
72685;BME280;61365;52.162;4.500;2023-07-31T10:30:20;100489.00;;;21.29;77.84
72685;BME280;61365;52.162;4.500;2023-07-31T10:32:50;100491.75;;;21.27;77.58
72685;BME280;61365;52.162;4.500;2023-07-31T10:35:18;100496.31;;;21.25;77.43
72685;BME280;61365;52.162;4.500;2023-07-31T10:37:44;100498.63;;;21.49;75.46
72685;BME280;61365;52.162;4.500;2023-07-31T10:40:12;100496.41;;;21.57;75.83
72685;BME280;61365;52.162;4.500;2023-07-31T10:42:46;100495.19;;;21.65;76.31
72685;BME280;61365;52.162;4.500;2023-07-31T10:45:37;100492.25;;;21.52;75.84
72685;BME280;61365;52.162;4.500;2023-07-31T10:48:17;100493.00;;;21.55;74.93
72685;BME280;61365;52.162;4.500;2023-07-31T10:50:47;100490.09;;;21.42;76.01
72685;BME280;61365;52.162;4.500;2023-07-31T10:53:22;100503.38;;;21.26;77.07
72685;BME280;61365;52.162;4.500;2023-07-31T10:55:52;100498.63;;;21.49;76.39
72685;BME280;61365;52.162;4.500;2023-07-31T10:58:19;100496.66;;;21.70;75.92
72685;BME280;61365;52.162;4.500;2023-07-31T11:00:49;100487.50;;;21.92;74.30
72685;BME280;61365;52.162;4.500;2023-07-31T11:03:16;100480.09;;;21.97;73.89
72685;BME280;61365;52.162;4.500;2023-07-31T11:08:27;100476.59;;;22.13;72.94
72685;BME280;61365;52.162;4.500;2023-07-31T11:15:56;100472.63;;;21.70;73.98
72685;BME280;61365;52.162;4.500;2023-07-31T11:18:22;100478.47;;;21.95;73.77
72685;BME280;61365;52.162;4.500;2023-07-31T11:20:49;100468.88;;;21.90;73.41
72685;BME280;61365;52.162;4.500;2023-07-31T11:23:16;100467.25;;;21.88;73.14
72685;BME280;61365;52.162;4.500;2023-07-31T11:25:43;100444.09;;;22.37;72.34
72685;BME280;61365;52.162;4.500;2023-07-31T11:28:11;100444.59;;;22.11;71.79
72685;BME280;61365;52.162;4.500;2023-07-31T11:30:39;100452.16;;;21.87;72.79
72685;BME280;61365;52.162;4.500;2023-07-31T11:33:09;100453.63;;;21.93;72.17
72685;BME280;61365;52.162;4.500;2023-07-31T11:35:47;100446.97;;;21.68;73.57
72685;BME280;61365;52.162;4.500;2023-07-31T11:38:21;100453.91;;;21.88;73.08
72685;BME280;61365;52.162;4.500;2023-07-31T11:40:49;100449.63;;;21.68;73.73
72685;BME280;61365;52.162;4.500;2023-07-31T11:43:15;100458.56;;;22.16;72.54
72685;BME280;61365;52.162;4.500;2023-07-31T11:45:51;100466.50;;;22.34;71.73
72685;BME280;61365;52.162;4.500;2023-07-31T11:48:28;100465.00;;;21.80;73.29
72685;BME280;61365;52.162;4.500;2023-07-31T11:50:58;100473.91;;;21.63;73.31
72685;BME280;61365;52.162;4.500;2023-07-31T11:53:36;100476.50;;;21.65;74.20
72685;BME280;61365;52.162;4.500;2023-07-31T11:56:08;100482.50;;;21.86;72.42
72685;BME280;61365;52.162;4.500;2023-07-31T11:58:37;100477.97;;;21.70;72.74
72685;BME280;61365;52.162;4.500;2023-07-31T12:01:04;100470.91;;;21.69;73.84
72685;BME280;61365;52.162;4.500;2023-07-31T12:03:31;100460.34;;;21.84;72.46
72685;BME280;61365;52.162;4.500;2023-07-31T12:05:58;100463.47;;;21.92;72.03
72685;BME280;61365;52.162;4.500;2023-07-31T12:08:26;100455.63;;;21.89;72.59
72685;BME280;61365;52.162;4.500;2023-07-31T12:10:52;100456.06;;;21.81;73.64
72685;BME280;61365;52.162;4.500;2023-07-31T12:13:23;100442.75;;;21.80;73.14
72685;BME280;61365;52.162;4.500;2023-07-31T12:15:57;100442.88;;;21.94;72.37
72685;BME280;61365;52.162;4.500;2023-07-31T12:18:25;100438.97;;;21.84;72.70
72685;BME280;61365;52.162;4.500;2023-07-31T12:20:54;100444.34;;;22.00;72.11
72685;BME280;61365;52.162;4.500;2023-07-31T12:23:23;100442.50;;;21.84;73.29
72685;BME280;61365;52.162;4.500;2023-07-31T12:28:29;100445.69;;;21.75;73.61
72685;BME280;61365;52.162;4.500;2023-07-31T12:30:59;100444.06;;;21.55;74.48
72685;BME280;61365;52.162;4.500;2023-07-31T12:33:33;100435.88;;;21.58;74.06
72685;BME280;61365;52.162;4.500;2023-07-31T12:36:01;100426.63;;;21.65;74.45
72685;BME280;61365;52.162;4.500;2023-07-31T12:38:29;100431.22;;;21.79;74.33
72685;BME280;61365;52.162;4.500;2023-07-31T12:40:56;100410.13;;;22.39;71.88
72685;BME280;61365;52.162;4.500;2023-07-31T12:43:22;100405.59;;;22.71;71.14
72685;BME280;61365;52.162;4.500;2023-07-31T12:45:48;100405.31;;;22.76;70.40
72685;BME280;61365;52.162;4.500;2023-07-31T12:48:14;100417.59;;;22.94;69.76
72685;BME280;61365;52.162;4.500;2023-07-31T12:50:40;100425.53;;;22.96;68.51
72685;BME280;61365;52.162;4.500;2023-07-31T12:53:07;100419.16;;;22.83;69.57
72685;BME280;61365;52.162;4.500;2023-07-31T12:55:33;100418.97;;;22.71;70.43
72685;BME280;61365;52.162;4.500;2023-07-31T12:58:00;100409.25;;;22.85;69.14
72685;BME280;61365;52.162;4.500;2023-07-31T13:00:27;100408.09;;;22.89;69.34
72685;BME280;61365;52.162;4.500;2023-07-31T13:02:53;100406.56;;;23.15;67.67
72685;BME280;61365;52.162;4.500;2023-07-31T13:05:22;100407.44;;;22.55;70.56
72685;BME280;61365;52.162;4.500;2023-07-31T13:07:48;100394.25;;;22.35;70.33
72685;BME280;61365;52.162;4.500;2023-07-31T13:10:14;100390.19;;;22.28;70.75
72685;BME280;61365;52.162;4.500;2023-07-31T13:12:41;100381.69;;;22.05;71.80